Time;durP1;ratioP1;P1;durP2;ratioP2;P2;SDS_P1;SDS_P2;PMS_P1;PMS_P2;Temp;Humidity;BMP_temperature;BMP_pressure;BME280_temperature;BME280_humidity;BME280_pressure;Samples;Min_cycle;Max_cycle;Signal;HPM_P1;HPM_P2
2023/05/28 00:00:09;;;;;;;6.70;3.50;;;;;;;11.13;65.88;99046.33;104662;1264;107596;-62
2023/05/28 00:02:37;;;;;;;5.60;3.30;;;;;;;11.12;65.95;99042.61;104682;1265;97236;-62
2023/05/28 00:05:05;;;;;;;10.70;3.60;;;;;;;11.08;66.02;99042.10;104691;1267;96707;-61
2023/05/28 00:07:33;;;;;;;5.50;3.00;;;;;;;11.06;65.77;99037.52;104681;1258;109877;-61
2023/05/28 00:10:00;;;;;;;13.70;3.50;;;;;;;11.01;66.05;99031.16;104819;1263;99321;-61
2023/05/28 00:12:29;;;;;;;8.20;3.40;;;;;;;10.95;66.06;99032.23;104747;1260;108667;-63
2023/05/28 00:14:56;;;;;;;5.60;3.20;;;;;;;10.89;66.34;99027.86;104529;1267;98046;-61
2023/05/28 00:17:24;;;;;;;7.20;3.70;;;;;;;10.85;66.22;99025.84;104837;1263;97787;-67
2023/05/28 00:19:51;;;;;;;6.80;3.20;;;;;;;10.84;65.97;99025.83;105038;1263;110561;-62
2023/05/28 00:22:19;;;;;;;6.40;3.70;;;;;;;10.85;65.75;99027.16;104749;1264;98757;-61
2023/05/28 00:24:46;;;;;;;6.30;3.10;;;;;;;10.84;65.80;99022.80;104877;1263;97515;-62
2023/05/28 00:27:13;;;;;;;6.90;3.20;;;;;;;10.79;65.70;99022.69;104938;1263;96565;-62
2023/05/28 00:29:40;;;;;;;5.50;3.10;;;;;;;10.76;65.65;99021.20;104829;1273;96574;-61
2023/05/28 00:32:07;;;;;;;5.60;2.90;;;;;;;10.76;65.46;99023.84;104917;1263;96570;-61
2023/05/28 00:34:34;;;;;;;5.70;3.30;;;;;;;10.76;65.28;99019.13;104901;1263;96629;-62
2023/05/28 00:37:01;;;;;;;6.40;3.30;;;;;;;10.73;65.55;99018.09;104819;1262;96491;-61
2023/05/28 00:39:28;;;;;;;6.30;3.50;;;;;;;10.69;65.26;99009.84;104934;1263;97162;-61
2023/05/28 00:42:08;;;;;;;8.20;3.90;;;;;;;10.67;65.33;99007.75;104968;1260;97880;-62
2023/05/28 00:44:36;;;;;;;7.30;3.60;;;;;;;10.63;65.27;99009.13;104644;1265;97445;-61
2023/05/28 00:47:04;;;;;;;8.60;3.90;;;;;;;10.61;65.25;99007.15;104671;1267;108320;-62
2023/05/28 00:49:34;;;;;;;8.80;3.10;;;;;;;10.59;65.04;99006.16;104950;1257;97855;-61
2023/05/28 00:52:03;;;;;;;6.00;3.40;;;;;;;10.57;65.11;99008.61;104964;1263;96598;-61
2023/05/28 00:54:31;;;;;;;6.40;3.20;;;;;;;10.53;65.18;99008.52;104658;1267;110176;-62
2023/05/28 00:57:01;;;;;;;9.00;3.60;;;;;;;10.50;65.43;99009.63;104652;1265;98528;-61
2023/05/28 00:59:35;;;;;;;5.60;3.00;;;;;;;10.47;65.37;99008.02;104576;1266;108300;-62
2023/05/28 01:02:10;;;;;;;6.50;3.00;;;;;;;10.41;65.54;99003.77;104886;1273;96610;-62
2023/05/28 01:04:40;;;;;;;7.50;3.40;;;;;;;10.35;65.66;99002.42;104921;1264;96536;-62
2023/05/28 01:07:07;;;;;;;6.80;3.30;;;;;;;10.32;65.49;99000.02;104893;1258;96553;-62
2023/05/28 01:09:34;;;;;;;5.80;3.00;;;;;;;10.30;65.76;98999.83;104727;1263;96619;-61
2023/05/28 01:12:04;;;;;;;5.40;3.10;;;;;;;10.25;65.91;98999.75;104887;1258;97866;-62
2023/05/28 01:14:31;;;;;;;5.90;3.30;;;;;;;10.18;66.19;98995.35;104879;1264;97183;-61
2023/05/28 01:16:58;;;;;;;7.10;3.40;;;;;;;10.15;66.25;98989.32;104908;1260;96654;-62
2023/05/28 01:19:27;;;;;;;8.30;3.20;;;;;;;10.10;66.36;98993.25;104889;1263;97451;-62
2023/05/28 01:22:05;;;;;;;7.70;3.70;;;;;;;10.08;66.33;98992.03;105003;1263;99208;-62
2023/05/28 01:24:34;;;;;;;6.40;3.10;;;;;;;10.02;66.36;98986.20;104648;1265;107672;-62
2023/05/28 01:27:02;;;;;;;7.60;3.00;;;;;;;9.97;66.62;98985.43;104657;1265;96645;-62
2023/05/28 01:29:29;;;;;;;6.90;3.40;;;;;;;9.94;66.69;98983.56;104915;1263;97756;-61
2023/05/28 01:31:57;;;;;;;5.20;2.80;;;;;;;9.90;66.80;98979.36;104527;1277;109885;-62
2023/05/28 01:34:24;;;;;;;6.10;3.20;;;;;;;9.86;66.70;98978.94;104903;1259;99260;-61
2023/05/28 01:37:01;;;;;;;6.40;3.30;;;;;;;9.83;66.84;98976.77;104908;1263;96641;-62
2023/05/28 01:39:36;;;;;;;5.60;3.40;;;;;;;9.77;67.04;98974.82;104965;1263;97886;-66
2023/05/28 01:42:06;;;;;;;7.20;3.90;;;;;;;9.74;67.16;98980.20;105069;1260;96542;-62
2023/05/28 01:44:33;;;;;;;8.60;4.00;;;;;;;9.72;67.08;98980.02;105109;1260;111074;-62
2023/05/28 01:47:01;;;;;;;6.90;3.00;;;;;;;9.70;67.19;98980.70;104999;1271;98167;-61
2023/05/28 01:49:28;;;;;;;7.80;2.90;;;;;;;9.64;67.32;98979.86;104986;1254;108587;-62
2023/05/28 01:51:56;;;;;;;7.00;3.30;;;;;;;9.62;67.21;98976.72;105012;1254;96580;-61
2023/05/28 01:54:23;;;;;;;6.40;3.50;;;;;;;9.59;67.13;98977.11;105112;1259;96543;-63
2023/05/28 01:56:51;;;;;;;5.20;3.40;;;;;;;9.58;67.40;98980.23;104904;1262;110505;-62
2023/05/28 01:59:18;;;;;;;7.50;3.70;;;;;;;9.55;67.54;98979.30;105023;1255;96613;-61
2023/05/28 02:01:45;;;;;;;5.70;3.20;;;;;;;9.53;67.53;98978.17;105067;1254;96586;-61
2023/05/28 02:04:12;;;;;;;9.20;3.60;;;;;;;9.52;67.69;98977.05;105030;1277;96654;-61
2023/05/28 02:06:43;;;;;;;5.40;3.10;;;;;;;9.53;67.59;98981.59;105081;1259;96544;-61
2023/05/28 02:09:11;;;;;;;6.40;3.00;;;;;;;9.53;67.45;98975.05;105071;1254;110857;-60
2023/05/28 02:11:38;;;;;;;4.60;2.80;;;;;;;9.52;67.35;98974.92;105078;1260;96555;-61
2023/05/28 02:14:05;;;;;;;7.60;2.80;;;;;;;9.48;67.59;98974.21;105115;1260;96555;-61
2023/05/28 02:16:32;;;;;;;11.80;3.30;;;;;;;9.46;67.42;98969.82;104995;1260;97874;-61
2023/05/28 02:18:59;;;;;;;6.10;3.60;;;;;;;9.42;67.61;98969.98;105123;1260;97858;-61
2023/05/28 02:21:28;;;;;;;7.00;3.30;;;;;;;9.36;67.82;98972.33;105003;1254;96526;-61
2023/05/28 02:23:55;;;;;;;8.00;3.50;;;;;;;9.32;67.57;98970.75;104933;1262;98865;-61
2023/05/28 02:26:23;;;;;;;5.50;3.20;;;;;;;9.30;67.84;98970.30;105035;1259;108596;-61
2023/05/28 02:28:50;;;;;;;7.10;3.20;;;;;;;9.27;67.42;98970.27;104962;1260;96552;-61
2023/05/28 02:31:17;;;;;;;6.90;3.90;;;;;;;9.23;67.73;98965.36;104977;1271;96529;-61
2023/05/28 02:33:44;;;;;;;7.90;3.50;;;;;;;9.19;67.79;98965.75;104974;1259;96594;-61
2023/05/28 02:36:14;;;;;;;6.40;3.00;;;;;;;9.16;67.56;98968.14;105111;1254;96567;-61
2023/05/28 02:38:42;;;;;;;;;;;;;;;9.14;67.62;98969.04;105106;1261;108569;-62
2023/05/28 02:41:10;;;;;;;6.70;3.30;;;;;;;9.10;67.73;98969.17;105104;1260;96584;-62
2023/05/28 02:43:37;;;;;;;4.90;2.80;;;;;;;9.04;68.17;98972.52;105032;1260;98324;-60
2023/05/28 02:46:04;;;;;;;7.20;3.00;;;;;;;9.00;68.03;98973.84;105065;1259;96654;-61
2023/05/28 02:48:32;;;;;;;9.30;3.50;;;;;;;8.97;67.95;98970.92;105092;1260;97228;-61
2023/05/28 02:50:59;;;;;;;9.40;3.20;;;;;;;8.97;67.84;98975.30;105035;1259;96568;-61
2023/05/28 02:53:31;;;;;;;6.50;2.90;;;;;;;8.96;67.88;98975.70;105067;1260;97958;-61
2023/05/28 02:55:58;;;;;;;6.30;3.00;;;;;;;8.95;67.83;98973.52;104969;1254;96547;-61
2023/05/28 02:58:25;;;;;;;6.80;3.10;;;;;;;8.93;68.01;98972.52;104989;1260;97446;-63
2023/05/28 03:00:52;;;;;;;5.80;3.50;;;;;;;8.87;68.20;98969.76;104864;1259;96554;-65
2023/05/28 03:03:19;;;;;;;7.30;2.90;;;;;;;8.83;68.01;98972.60;105113;1261;96549;-61
2023/05/28 03:05:48;;;;;;;5.80;3.30;;;;;;;8.79;67.55;98969.59;105097;1259;97230;-62
2023/05/28 03:08:15;;;;;;;5.80;3.10;;;;;;;8.76;68.01;98970.63;105037;1259;97841;-66
2023/05/28 03:10:42;;;;;;;6.50;2.60;;;;;;;8.73;67.71;98968.86;104992;1254;97445;-61
2023/05/28 03:13:10;;;;;;;5.90;2.80;;;;;;;8.70;67.85;98967.64;105062;1254;96581;-61
2023/05/28 03:15:37;;;;;;;4.90;2.80;;;;;;;8.71;67.68;98971.39;105029;1254;96571;-61
2023/05/28 03:18:04;;;;;;;8.70;3.10;;;;;;;8.70;67.68;98968.13;105045;1259;97468;-61
2023/05/28 03:20:31;;;;;;;6.20;3.10;;;;;;;8.72;67.73;98967.45;105096;1261;96549;-61
2023/05/28 03:22:58;;;;;;;4.50;2.80;;;;;;;8.73;67.51;98960.88;105067;1270;96548;-61
2023/05/28 03:25:26;;;;;;;6.20;3.30;;;;;;;8.77;67.34;98958.14;105090;1259;96654;-60
2023/05/28 03:27:53;;;;;;;6.80;3.20;;;;;;;8.84;67.12;98954.55;105025;1261;98001;-62
2023/05/28 03:30:21;;;;;;;5.50;2.70;;;;;;;8.92;67.08;98957.55;105044;1261;96549;-61
2023/05/28 03:32:51;;;;;;;6.10;2.60;;;;;;;9.02;66.64;98959.27;105106;1258;97067;-62
2023/05/28 03:35:26;;;;;;;4.50;2.50;;;;;;;9.08;66.67;98959.85;104965;1260;110916;-61
2023/05/28 03:37:58;;;;;;;7.60;2.80;;;;;;;9.12;66.57;98955.80;105023;1260;98239;-61
2023/05/28 03:40:25;;;;;;;10.80;3.20;;;;;;;9.15;66.20;98955.36;105085;1260;96651;-61
2023/05/28 03:42:52;;;;;;;7.30;2.80;;;;;;;9.20;66.23;98954.09;105065;1268;96562;-62
2023/05/28 03:45:19;;;;;;;4.30;2.60;;;;;;;9.27;66.07;98957.20;105047;1260;97731;-62
2023/05/28 03:47:47;;;;;;;4.90;2.80;;;;;;;9.33;65.47;98955.38;105063;1259;96607;-62
2023/05/28 03:50:15;;;;;;;4.50;2.80;;;;;;;9.36;65.79;98960.06;104987;1270;96520;-62
2023/05/28 03:52:42;;;;;;;5.70;2.60;;;;;;;9.46;65.64;98954.98;105056;1260;96625;-62
2023/05/28 03:55:09;;;;;;;4.40;2.20;;;;;;;9.55;65.06;98957.47;105056;1260;96549;-61
2023/05/28 03:57:36;;;;;;;10.60;3.50;;;;;;;9.59;65.03;98958.56;105008;1259;96508;-61
2023/05/28 04:00:06;;;;;;;6.00;2.40;;;;;;;9.66;64.81;98962.98;105056;1261;97870;-61
2023/05/28 04:02:34;;;;;;;5.90;2.60;;;;;;;9.76;64.43;98962.63;105083;1268;99352;-61
2023/05/28 04:05:01;;;;;;;6.10;2.60;;;;;;;9.80;63.99;98961.27;104921;1263;107935;-61
2023/05/28 04:07:31;;;;;;;4.60;3.00;;;;;;;9.85;63.76;98961.28;105042;1259;96593;-61
2023/05/28 04:10:09;;;;;;;9.50;2.60;;;;;;;9.91;63.37;98964.02;105016;1259;97827;-61
2023/05/28 04:12:37;;;;;;;5.10;2.20;;;;;;;9.94;63.13;98965.83;105041;1262;110952;-62
2023/05/28 04:15:05;;;;;;;9.60;4.10;;;;;;;10.03;63.36;98965.02;104961;1261;98701;-62
2023/05/28 04:17:32;;;;;;;4.90;2.50;;;;;;;10.13;62.74;98964.42;104939;1259;109323;-62
2023/05/28 04:20:00;;;;;;;5.90;2.50;;;;;;;10.20;62.61;98969.23;104959;1259;96730;-64
2023/05/28 04:22:27;;;;;;;5.20;2.30;;;;;;;10.28;62.44;98967.61;104961;1258;97048;-63
2023/05/28 04:24:55;;;;;;;4.20;2.50;;;;;;;10.35;62.01;98963.04;105099;1268;96547;-65
2023/05/28 04:27:23;;;;;;;5.30;2.30;;;;;;;10.41;62.16;98965.42;105152;1260;99380;-62
2023/05/28 04:29:52;;;;;;;6.40;2.50;;;;;;;10.51;61.71;98961.31;105001;1254;107764;-62
2023/05/28 04:32:20;;;;;;;5.60;2.50;;;;;;;10.58;61.23;98963.52;104971;1260;96608;-62
2023/05/28 04:34:47;;;;;;;7.30;2.70;;;;;;;10.62;60.53;98966.36;105058;1259;97336;-63
2023/05/28 04:37:16;;;;;;;3.80;2.50;;;;;;;10.62;60.51;98962.90;105036;1259;96539;-62
2023/05/28 04:39:43;;;;;;;4.00;2.30;;;;;;;10.66;60.29;98964.52;105003;1261;98652;-62
2023/05/28 04:42:16;;;;;;;3.20;1.70;;;;;;;10.70;60.71;98959.16;105028;1271;96540;-63
2023/05/28 04:44:44;;;;;;;6.10;2.70;;;;;;;10.79;60.15;98958.85;105060;1261;96560;-63
2023/05/28 04:47:13;;;;;;;5.50;2.70;;;;;;;10.87;60.10;98956.23;105097;1259;97347;-62
2023/05/28 04:49:43;;;;;;;5.00;2.50;;;;;;;10.95;60.12;98952.98;105058;1259;110568;-62
2023/05/28 04:52:10;;;;;;;3.80;2.10;;;;;;;11.08;60.00;98951.98;104982;1262;99209;-62
2023/05/28 04:54:37;;;;;;;3.30;2.10;;;;;;;11.16;59.94;98950.91;104928;1262;108101;-63
2023/05/28 04:57:06;;;;;;;4.80;2.10;;;;;;;11.27;59.68;98949.62;105019;1270;96696;-62
2023/05/28 04:59:35;;;;;;;4.50;2.10;;;;;;;11.34;59.41;98947.37;105082;1258;96548;-62
2023/05/28 05:02:03;;;;;;;4.10;2.30;;;;;;;11.42;58.86;98953.16;104997;1254;109096;-62
2023/05/28 05:04:31;;;;;;;2.80;1.90;;;;;;;11.45;58.47;98958.62;105046;1261;98731;-62
2023/05/28 05:06:58;;;;;;;3.40;2.00;;;;;;;11.45;58.45;98958.14;104961;1261;107624;-63
2023/05/28 05:09:27;;;;;;;4.90;2.80;;;;;;;11.50;58.44;98956.58;105043;1259;96559;-63
2023/05/28 05:11:54;;;;;;;3.40;2.00;;;;;;;11.55;58.37;98962.02;104892;1262;97753;-62
2023/05/28 05:14:21;;;;;;;3.60;2.00;;;;;;;11.64;58.14;98960.85;104851;1254;96556;-62
2023/05/28 05:16:48;;;;;;;3.00;1.90;;;;;;;11.63;57.84;98966.19;104910;1260;97903;-62
2023/05/28 05:19:15;;;;;;;5.50;2.70;;;;;;;11.67;58.32;98966.19;104976;1259;97010;-62
2023/05/28 05:21:42;;;;;;;6.00;2.60;;;;;;;11.83;57.90;98965.59;105008;1260;96583;-62
2023/05/28 05:24:09;;;;;;;4.20;2.20;;;;;;;11.91;57.86;98967.23;104926;1271;96542;-62
2023/05/28 05:26:36;;;;;;;4.20;2.20;;;;;;;11.96;57.45;98969.97;104895;1257;97845;-62
2023/05/28 05:29:03;;;;;;;6.30;2.80;;;;;;;12.00;57.42;98973.64;104959;1259;96629;-62
2023/05/28 05:31:31;;;;;;;4.30;2.20;;;;;;;12.08;57.70;98970.04;104997;1259;96565;-62
2023/05/28 05:33:58;;;;;;;7.20;2.50;;;;;;;12.11;57.46;98967.36;104992;1259;96623;-62
2023/05/28 05:36:26;;;;;;;3.80;2.20;;;;;;;12.22;57.84;98967.33;104858;1259;96648;-62
2023/05/28 05:38:53;;;;;;;3.80;1.90;;;;;;;12.36;57.22;98961.39;104912;1260;97850;-63
2023/05/28 05:41:21;;;;;;;3.40;1.90;;;;;;;12.39;56.94;98964.77;104824;1275;96965;-61
2023/05/28 05:43:48;;;;;;;7.60;2.60;;;;;;;12.44;57.08;98963.98;105050;1262;96755;-64
2023/05/28 05:46:15;;;;;;;3.00;2.00;;;;;;;12.52;57.30;98965.52;104900;1260;96548;-71
2023/05/28 05:48:43;;;;;;;5.10;2.60;;;;;;;12.60;56.43;98964.25;105072;1264;96541;-64
2023/05/28 05:51:16;;;;;;;3.70;2.30;;;;;;;12.73;56.54;98965.12;105482;1269;97851;-64
2023/05/28 05:53:44;;;;;;;5.50;2.30;;;;;;;12.93;56.68;98966.34;105064;1259;108580;-62
2023/05/28 05:56:12;;;;;;;4.20;2.20;;;;;;;13.02;55.74;98964.58;105049;1268;97874;-62
2023/05/28 05:58:39;;;;;;;6.10;2.30;;;;;;;13.02;55.97;98964.27;105057;1260;96558;-62
2023/05/28 06:01:06;;;;;;;5.20;2.70;;;;;;;13.09;56.03;98958.91;105034;1260;96558;-62
2023/05/28 06:03:35;;;;;;;4.40;2.20;;;;;;;13.21;55.84;98957.13;105048;1259;96619;-62
2023/05/28 06:06:03;;;;;;;5.60;2.50;;;;;;;13.29;55.90;98956.55;105084;1260;108649;-66
2023/05/28 06:08:30;;;;;;;4.40;2.30;;;;;;;13.53;55.53;98953.38;104892;1271;97842;-62
2023/05/28 06:10:57;;;;;;;6.30;2.60;;;;;;;13.74;55.10;98954.98;105003;1260;96558;-60
2023/05/28 06:13:27;;;;;;;4.00;2.10;;;;;;;13.92;55.12;98949.04;105011;1267;96556;-60
2023/05/28 06:16:06;;;;;;;4.30;1.90;;;;;;;14.03;54.24;98950.91;104917;1260;99022;-60
2023/05/28 06:18:39;;;;;;;3.60;1.90;;;;;;;14.09;53.55;98951.48;105022;1260;108786;-60
2023/05/28 06:21:07;;;;;;;6.30;2.50;;;;;;;14.10;53.94;98952.21;105133;1258;96644;-60
2023/05/28 06:23:34;;;;;;;4.10;2.00;;;;;;;14.27;54.40;98953.67;104914;1267;96706;-60
2023/05/28 06:26:03;;;;;;;5.40;2.30;;;;;;;14.46;53.63;98957.02;105009;1259;97421;-60
2023/05/28 06:28:31;;;;;;;4.90;2.30;;;;;;;14.55;53.51;98956.67;105054;1260;99306;-61
2023/05/28 06:30:59;;;;;;;5.10;2.30;;;;;;;14.76;53.87;98956.49;105107;1259;108084;-60
2023/05/28 06:33:26;;;;;;;4.80;2.10;;;;;;;14.90;52.93;98956.72;104911;1273;96542;-60
2023/05/28 06:35:53;;;;;;;3.50;1.90;;;;;;;15.01;52.45;98955.69;104982;1261;96529;-59
2023/05/28 06:38:21;;;;;;;4.60;1.90;;;;;;;15.09;51.93;98956.92;105071;1260;109123;-60
2023/05/28 06:40:49;;;;;;;3.30;2.20;;;;;;;15.17;52.21;98954.66;105005;1261;97509;-60
2023/05/28 06:43:15;;;;;;;4.20;2.00;;;;;;;15.36;51.76;98954.14;104863;1270;96641;-59
2023/05/28 06:45:43;;;;;;;4.80;2.10;;;;;;;15.46;50.72;98953.63;105007;1260;96576;-59
2023/05/28 06:48:10;;;;;;;5.50;2.10;;;;;;;15.40;50.10;98955.78;105048;1259;96603;-59
2023/05/28 06:50:37;;;;;;;3.30;2.00;;;;;;;15.49;50.49;98956.39;105004;1259;96580;-59
2023/05/28 06:53:04;;;;;;;3.60;2.00;;;;;;;15.79;49.95;98950.98;105039;1260;96569;-60
2023/05/28 06:55:31;;;;;;;3.20;2.30;;;;;;;15.90;50.10;98948.36;105067;1260;97418;-60
2023/05/28 06:57:58;;;;;;;4.80;2.10;;;;;;;16.08;50.34;98947.55;105001;1260;96593;-61
2023/05/28 07:00:26;;;;;;;5.90;1.80;;;;;;;16.25;49.00;98943.45;105049;1254;96648;-61
2023/05/28 07:02:53;;;;;;;6.90;2.20;;;;;;;16.38;49.03;98944.95;104988;1260;97519;-60
2023/05/28 07:05:20;;;;;;;3.80;2.10;;;;;;;16.50;48.12;98946.35;105063;1254;97860;-65
2023/05/28 07:07:47;;;;;;;2.30;1.60;;;;;;;16.54;47.12;98942.84;104932;1254;96577;-60
2023/05/28 07:10:14;;;;;;;3.90;2.10;;;;;;;16.58;46.97;98942.26;105077;1256;96549;-64
2023/05/28 07:12:42;;;;;;;2.60;1.30;;;;;;;16.75;47.37;98939.94;105069;1259;110446;-60
2023/05/28 07:15:10;;;;;;;5.80;1.80;;;;;;;16.93;47.00;98943.47;105029;1258;97858;-59
2023/05/28 07:17:37;;;;;;;2.80;1.90;;;;;;;17.13;46.46;98940.41;105077;1258;108580;-59
2023/05/28 07:20:05;;;;;;;5.00;2.10;;;;;;;17.37;46.68;98935.39;105006;1259;97854;-60
2023/05/28 07:22:33;;;;;;;3.40;1.60;;;;;;;17.51;45.19;98935.08;104885;1270;266654;-60
2023/05/28 07:25:00;;;;;;;3.10;1.60;;;;;;;17.59;44.08;98936.61;104995;1260;96669;-60
2023/05/28 07:27:27;;;;;;;2.40;1.60;;;;;;;17.80;44.99;98938.05;104974;1269;96567;-60
2023/05/28 07:29:56;;;;;;;3.50;1.70;;;;;;;18.11;44.50;98936.61;104994;1260;97462;-60
2023/05/28 07:32:24;;;;;;;4.00;1.70;;;;;;;18.04;42.93;98938.41;105019;1268;96708;-60
2023/05/28 07:34:51;;;;;;;4.30;2.00;;;;;;;18.02;43.05;98934.80;105040;1259;96600;-62
2023/05/28 07:37:19;;;;;;;2.80;1.30;;;;;;;18.02;42.77;98932.91;104949;1262;110393;-61
2023/05/28 07:39:46;;;;;;;3.40;1.50;;;;;;;18.02;43.03;98932.91;106165;1260;99040;-60
2023/05/28 07:42:14;;;;;;;4.40;1.60;;;;;;;18.15;42.55;98927.38;104924;1260;97490;-60
2023/05/28 07:44:41;;;;;;;3.10;1.60;;;;;;;18.31;41.99;98923.16;105014;1262;97866;-63
2023/05/28 07:47:08;;;;;;;3.80;1.40;;;;;;;18.49;41.50;98922.71;105004;1259;96591;-60
2023/05/28 07:49:35;;;;;;;3.30;1.60;;;;;;;18.39;41.28;98921.52;105064;1254;96537;-60
2023/05/28 07:52:04;;;;;;;4.20;1.80;;;;;;;18.55;41.88;98921.64;105009;1260;96538;-61
2023/05/28 07:54:31;;;;;;;2.90;1.20;;;;;;;18.73;41.49;98916.51;105042;1267;96559;-60
2023/05/28 07:57:00;;;;;;;4.60;1.50;;;;;;;18.75;40.58;98919.54;105033;1260;97324;-60
2023/05/28 07:59:28;;;;;;;3.70;1.60;;;;;;;18.87;40.16;98916.95;105030;1254;96604;-60
2023/05/28 08:01:55;;;;;;;1.60;1.10;;;;;;;18.91;39.29;98912.61;105006;1260;110927;-60
2023/05/28 08:04:22;;;;;;;6.70;1.50;;;;;;;18.88;38.93;98914.54;104818;1256;96545;-60
2023/05/28 08:06:50;;;;;;;2.20;1.40;;;;;;;19.03;39.26;98913.79;104950;1270;96548;-62
2023/05/28 08:09:17;;;;;;;3.70;1.30;;;;;;;19.43;39.42;98913.02;104983;1257;97149;-60
2023/05/28 08:11:45;;;;;;;2.80;1.20;;;;;;;19.36;36.96;98910.43;104962;1269;97851;-61
2023/05/28 08:14:13;;;;;;;1.40;0.70;;;;;;;19.18;36.79;98903.90;104962;1259;110839;-60
2023/05/28 08:16:41;;;;;;;2.10;1.20;;;;;;;19.20;36.89;98908.28;104956;1261;98986;-60
2023/05/28 08:19:08;;;;;;;1.80;1.30;;;;;;;19.29;36.61;98910.53;104869;1262;96645;-61
2023/05/28 08:21:35;;;;;;;2.60;1.20;;;;;;;19.22;36.53;98907.05;105015;1269;98149;-61
2023/05/28 08:24:06;;;;;;;2.00;1.20;;;;;;;19.11;36.19;98906.61;105014;1259;96658;-61
2023/05/28 08:26:33;;;;;;;1.90;1.10;;;;;;;19.06;36.34;98901.40;104832;1259;110917;-62
2023/05/28 08:29:01;;;;;;;2.40;1.10;;;;;;;19.19;36.79;98903.83;104893;1259;96546;-62
2023/05/28 08:31:28;;;;;;;3.00;1.10;;;;;;;19.43;36.63;98902.94;104919;1260;108590;-63
2023/05/28 08:33:56;;;;;;;2.60;1.20;;;;;;;19.79;36.30;98906.04;104834;1262;97465;-60
2023/05/28 08:36:23;;;;;;;1.80;1.30;;;;;;;19.92;35.68;98903.89;104991;1258;96543;-59
2023/05/28 08:38:50;;;;;;;1.90;1.20;;;;;;;19.94;36.48;98899.23;104773;1270;96561;-58
2023/05/28 08:41:18;;;;;;;1.70;1.10;;;;;;;20.04;35.29;98903.86;104986;1269;96631;-60
2023/05/28 08:43:47;;;;;;;2.10;1.20;;;;;;;19.81;35.30;98896.63;104615;1263;108507;-62
2023/05/28 08:46:15;;;;;;;3.90;1.40;;;;;;;19.84;36.19;98898.42;104857;1267;96577;-62
2023/05/28 08:48:44;;;;;;;4.30;1.30;;;;;;;19.98;36.59;98896.27;104990;1260;96898;-62
2023/05/28 08:51:20;;;;;;;1.30;1.00;;;;;;;20.13;35.98;98892.48;105034;1268;110797;-60
2023/05/28 08:53:54;;;;;;;3.30;1.30;;;;;;;20.14;36.13;98888.70;105006;1268;97764;-61
2023/05/28 08:56:29;;;;;;;2.10;1.30;;;;;;;20.15;36.28;98889.58;105225;1270;107314;-60
2023/05/28 08:59:10;;;;;;;2.20;1.60;;;;;;;20.57;35.62;98883.20;104926;1269;96703;-61
2023/05/28 09:01:44;;;;;;;2.60;1.40;;;;;;;20.90;34.84;98885.78;105031;1260;96545;-60
2023/05/28 09:04:22;;;;;;;2.20;1.40;;;;;;;20.83;34.39;98881.24;104968;1259;110680;-61
2023/05/28 09:06:51;;;;;;;2.80;1.10;;;;;;;20.74;34.94;98885.73;104946;1259;97474;-60
2023/05/28 09:09:18;;;;;;;6.00;1.20;;;;;;;21.03;34.75;98882.63;104944;1259;107760;-62
2023/05/28 09:11:46;;;;;;;2.90;1.40;;;;;;;21.05;34.80;98882.96;104964;1259;96542;-61
2023/05/28 09:14:16;;;;;;;2.50;1.10;;;;;;;21.13;35.03;98877.55;104779;1262;96507;-62
2023/05/28 09:16:44;;;;;;;5.20;1.20;;;;;;;21.56;33.86;98879.04;105008;1259;110842;-61
2023/05/28 09:19:15;;;;;;;3.00;1.50;;;;;;;21.89;33.42;98872.98;105058;1260;98270;-61
2023/05/28 09:22:03;;;;;;;3.90;1.30;;;;;;;22.01;33.24;98879.23;104982;1260;108711;-61
2023/05/28 09:24:38;;;;;;;1.90;1.10;;;;;;;21.95;32.77;98873.05;105015;1269;96562;-60
2023/05/28 09:27:10;;;;;;;1.40;1.10;;;;;;;21.85;32.57;98873.60;104873;1271;96558;-60
2023/05/28 09:29:46;;;;;;;3.00;1.60;;;;;;;21.91;32.61;98864.73;105017;1272;110484;-62
2023/05/28 09:32:25;;;;;;;2.10;1.40;;;;;;;22.19;32.47;98863.26;105031;1260;98201;-61
2023/05/28 09:34:58;;;;;;;2.80;1.30;;;;;;;22.35;33.31;98854.03;104948;1261;108204;-60
2023/05/28 09:37:28;;;;;;;3.70;1.70;;;;;;;22.23;33.25;98857.70;104976;1255;97442;-60
2023/05/28 09:40:03;;;;;;;2.70;1.20;;;;;;;22.41;32.84;98855.58;104986;1259;96569;-62
2023/05/28 09:42:43;;;;;;;3.70;1.40;;;;;;;22.51;32.90;98853.23;105011;1259;110746;-60
2023/05/28 09:45:11;;;;;;;4.40;1.50;;;;;;;22.76;32.91;98851.88;104864;1263;97845;-61
2023/05/28 09:47:46;;;;;;;2.30;1.20;;;;;;;22.75;31.96;98853.78;104738;1269;108229;-62
2023/05/28 09:50:13;;;;;;;6.80;1.50;;;;;;;23.03;31.47;98844.48;105016;1271;96561;-63
2023/05/28 09:52:44;;;;;;;2.40;1.30;;;;;;;23.49;32.16;98841.95;104859;1257;97337;-61
2023/05/28 09:55:20;;;;;;;4.30;1.40;;;;;;;23.84;30.28;98842.64;104983;1260;110515;-58
2023/05/28 09:57:59;;;;;;;3.30;1.20;;;;;;;23.38;30.16;98835.86;105031;1260;99108;-59
2023/05/28 10:00:52;;;;;;;3.60;1.40;;;;;;;23.65;30.75;98836.88;104872;1263;107564;-59
2023/05/28 10:03:28;;;;;;;2.20;1.20;;;;;;;23.80;29.49;98837.91;104738;1273;100232;-58
2023/05/28 10:06:00;;;;;;;3.30;1.60;;;;;;;23.74;29.98;98837.59;104864;1262;96654;-60
2023/05/28 10:08:28;;;;;;;6.00;1.30;;;;;;;23.55;30.18;98842.94;104843;1262;110014;-60
2023/05/28 10:10:55;;;;;;;2.90;1.30;;;;;;;23.62;29.98;98847.50;105007;1271;98767;-61
2023/05/28 10:13:23;;;;;;;2.00;1.20;;;;;;;23.82;29.85;98840.87;104981;1256;108542;-60
2023/05/28 10:15:52;;;;;;;1.80;1.40;;;;;;;23.85;30.16;98844.23;104901;1271;97855;-60
2023/05/28 10:18:20;;;;;;;4.90;1.40;;;;;;;23.81;30.16;98844.55;104841;1261;96638;-61
2023/05/28 10:20:47;;;;;;;1.40;1.00;;;;;;;24.04;30.39;98844.71;104895;1270;110808;-60
2023/05/28 10:23:16;;;;;;;4.00;1.30;;;;;;;24.05;29.90;98837.74;105035;1269;98028;-59
2023/05/28 10:25:43;;;;;;;2.20;1.50;;;;;;;23.95;29.63;98833.99;104763;1266;107597;-60
2023/05/28 10:28:14;;;;;;;4.90;1.40;;;;;;;24.06;29.61;98836.61;105005;1267;96635;-59
2023/05/28 10:30:41;;;;;;;2.10;1.10;;;;;;;23.91;29.32;98829.83;105261;1259;97776;-61
2023/05/28 10:33:19;;;;;;;2.90;1.60;;;;;;;23.57;29.55;98831.35;104982;1263;96616;-59
2023/05/28 10:35:58;;;;;;;1.70;1.20;;;;;;;23.79;29.26;98836.00;104976;1259;99438;-59
2023/05/28 10:38:27;;;;;;;4.50;1.50;;;;;;;23.81;28.89;98838.96;104953;1260;108678;-61
2023/05/28 10:41:02;;;;;;;2.70;1.30;;;;;;;24.10;29.05;98827.11;104958;1260;96650;-60
2023/05/28 10:43:38;;;;;;;4.10;1.40;;;;;;;24.04;28.74;98829.83;104952;1259;96527;-60
2023/05/28 10:46:10;;;;;;;5.80;2.00;;;;;;;24.11;28.87;98824.86;104857;1273;110103;-61
2023/05/28 10:48:42;;;;;;;2.70;1.30;;;;;;;24.39;29.02;98824.82;104890;1271;98286;-60
2023/05/28 10:51:10;;;;;;;2.00;1.30;;;;;;;24.44;28.81;98829.37;104912;1269;108314;-61
2023/05/28 10:53:38;;;;;;;1.90;1.30;;;;;;;24.05;29.29;98826.88;104862;1262;96614;-61
2023/05/28 10:56:07;;;;;;;2.60;1.40;;;;;;;23.85;29.06;98826.33;104953;1260;97035;-61
2023/05/28 10:58:36;;;;;;;2.70;1.40;;;;;;;24.02;28.89;98826.79;104978;1267;110688;-61
2023/05/28 11:01:05;;;;;;;1.90;1.30;;;;;;;24.03;29.66;98819.02;104981;1270;99231;-61
2023/05/28 11:03:43;;;;;;;2.30;1.50;;;;;;;23.84;29.58;98820.48;104943;1270;108690;-61
2023/05/28 11:06:12;;;;;;;4.00;1.50;;;;;;;24.06;29.83;98822.15;104919;1270;97857;-61
2023/05/28 11:08:49;;;;;;;2.50;1.30;;;;;;;24.33;29.02;98818.36;104825;1261;97382;-61
2023/05/28 11:11:18;;;;;;;2.30;1.30;;;;;;;24.35;28.64;98822.36;104959;1269;110869;-61
2023/05/28 11:13:48;;;;;;;3.80;1.40;;;;;;;24.38;28.78;98816.83;104624;1262;98196;-64
2023/05/28 11:16:18;;;;;;;4.20;1.60;;;;;;;24.57;29.11;98817.17;105064;1259;109106;-60
2023/05/28 11:19:01;;;;;;;;;;;;;;;24.43;28.00;98817.86;104977;1270;96608;-60
2023/05/28 11:21:34;;;;;;;2.80;1.40;;;;;;;24.28;27.86;98817.80;104946;1267;96481;-60
2023/05/28 11:24:04;;;;;;;2.00;1.20;;;;;;;24.25;28.36;98814.46;104760;1271;109409;-61
2023/05/28 11:26:32;;;;;;;4.00;1.30;;;;;;;23.90;28.68;98815.45;105284;1260;98434;-62
2023/05/28 11:29:01;;;;;;;3.30;1.60;;;;;;;23.89;29.32;98814.65;105018;1267;108916;-61
2023/05/28 11:31:39;;;;;;;2.60;1.70;;;;;;;24.40;29.15;98812.25;104937;1271;96625;-60
2023/05/28 11:34:10;;;;;;;3.80;1.50;;;;;;;24.64;28.00;98816.27;104987;1260;96456;-61